sensor_id;sensor_type;location;lat;lon;timestamp;P1;durP1;ratioP1;P2;durP2;ratioP2
75744;SDS011;74462;51.366;-0.222;2024-03-08T00:00:56;33.20;;;19.80;;
75744;SDS011;74462;51.366;-0.222;2024-03-08T00:02:00;32.60;;;19.20;;
75744;SDS011;74462;51.366;-0.222;2024-03-08T00:03:05;33.40;;;22.10;;
75744;SDS011;74462;51.366;-0.222;2024-03-08T00:04:09;33.20;;;20.70;;
75744;SDS011;74462;51.366;-0.222;2024-03-08T00:05:14;32.70;;;19.10;;
75744;SDS011;74462;51.366;-0.222;2024-03-08T00:06:19;29.60;;;19.50;;
75744;SDS011;74462;51.366;-0.222;2024-03-08T00:07:24;32.90;;;23.60;;
75744;SDS011;74462;51.366;-0.222;2024-03-08T00:08:29;30.80;;;19.70;;
75744;SDS011;74462;51.366;-0.222;2024-03-08T00:09:34;33.50;;;23.20;;
75744;SDS011;74462;51.366;-0.222;2024-03-08T00:10:38;32.40;;;18.80;;
75744;SDS011;74462;51.366;-0.222;2024-03-08T00:11:42;29.30;;;18.80;;
75744;SDS011;74462;51.366;-0.222;2024-03-08T00:12:48;37.80;;;23.70;;
75744;SDS011;74462;51.366;-0.222;2024-03-08T00:13:53;34.60;;;19.80;;
75744;SDS011;74462;51.366;-0.222;2024-03-08T00:14:57;33.60;;;23.10;;
75744;SDS011;74462;51.366;-0.222;2024-03-08T00:16:02;34.30;;;20.10;;
75744;SDS011;74462;51.366;-0.222;2024-03-08T00:17:07;32.00;;;19.10;;
75744;SDS011;74462;51.366;-0.222;2024-03-08T00:18:11;32.50;;;22.10;;
75744;SDS011;74462;51.366;-0.222;2024-03-08T00:19:15;33.40;;;19.30;;
75744;SDS011;74462;51.366;-0.222;2024-03-08T00:20:20;33.80;;;20.10;;
75744;SDS011;74462;51.366;-0.222;2024-03-08T00:21:24;32.90;;;22.70;;
75744;SDS011;74462;51.366;-0.222;2024-03-08T00:22:29;39.40;;;20.00;;
75744;SDS011;74462;51.366;-0.222;2024-03-08T00:23:34;30.70;;;21.90;;
75744;SDS011;74462;51.366;-0.222;2024-03-08T00:24:38;29.80;;;18.00;;
75744;SDS011;74462;51.366;-0.222;2024-03-08T00:25:42;32.70;;;22.90;;
75744;SDS011;74462;51.366;-0.222;2024-03-08T00:26:47;30.90;;;21.20;;
75744;SDS011;74462;51.366;-0.222;2024-03-08T00:27:51;33.20;;;22.30;;
75744;SDS011;74462;51.366;-0.222;2024-03-08T00:28:57;33.40;;;25.00;;
75744;SDS011;74462;51.366;-0.222;2024-03-08T00:30:01;36.40;;;22.80;;
75744;SDS011;74462;51.366;-0.222;2024-03-08T00:31:07;29.90;;;17.50;;
75744;SDS011;74462;51.366;-0.222;2024-03-08T00:32:11;36.20;;;23.80;;
75744;SDS011;74462;51.366;-0.222;2024-03-08T00:33:16;32.90;;;19.70;;
75744;SDS011;74462;51.366;-0.222;2024-03-08T00:34:20;35.20;;;20.50;;
75744;SDS011;74462;51.366;-0.222;2024-03-08T00:35:24;32.60;;;21.70;;
75744;SDS011;74462;51.366;-0.222;2024-03-08T00:36:29;31.30;;;18.50;;
75744;SDS011;74462;51.366;-0.222;2024-03-08T00:37:33;34.70;;;21.50;;
75744;SDS011;74462;51.366;-0.222;2024-03-08T00:38:37;35.60;;;23.40;;
75744;SDS011;74462;51.366;-0.222;2024-03-08T00:39:42;31.80;;;19.40;;
75744;SDS011;74462;51.366;-0.222;2024-03-08T00:40:46;32.80;;;22.00;;
75744;SDS011;74462;51.366;-0.222;2024-03-08T00:41:51;33.00;;;20.40;;
75744;SDS011;74462;51.366;-0.222;2024-03-08T00:42:55;37.90;;;23.70;;
75744;SDS011;74462;51.366;-0.222;2024-03-08T00:43:59;34.70;;;20.10;;
75744;SDS011;74462;51.366;-0.222;2024-03-08T00:45:06;36.10;;;20.40;;
75744;SDS011;74462;51.366;-0.222;2024-03-08T00:46:11;33.60;;;21.00;;
75744;SDS011;74462;51.366;-0.222;2024-03-08T00:47:16;34.30;;;18.60;;
75744;SDS011;74462;51.366;-0.222;2024-03-08T00:48:21;32.30;;;19.80;;
75744;SDS011;74462;51.366;-0.222;2024-03-08T00:49:26;34.90;;;21.70;;
75744;SDS011;74462;51.366;-0.222;2024-03-08T00:50:30;36.90;;;22.90;;
75744;SDS011;74462;51.366;-0.222;2024-03-08T00:51:35;36.60;;;19.70;;
75744;SDS011;74462;51.366;-0.222;2024-03-08T00:52:39;31.80;;;20.00;;
75744;SDS011;74462;51.366;-0.222;2024-03-08T00:53:44;32.10;;;19.70;;
75744;SDS011;74462;51.366;-0.222;2024-03-08T00:54:48;33.90;;;18.40;;
75744;SDS011;74462;51.366;-0.222;2024-03-08T00:55:53;31.60;;;19.50;;
75744;SDS011;74462;51.366;-0.222;2024-03-08T00:56:57;36.90;;;20.90;;
75744;SDS011;74462;51.366;-0.222;2024-03-08T00:58:04;34.30;;;22.20;;
75744;SDS011;74462;51.366;-0.222;2024-03-08T00:59:10;33.70;;;19.40;;
75744;SDS011;74462;51.366;-0.222;2024-03-08T01:00:16;32.20;;;20.90;;
75744;SDS011;74462;51.366;-0.222;2024-03-08T01:01:21;33.20;;;22.20;;
75744;SDS011;74462;51.366;-0.222;2024-03-08T01:02:26;35.80;;;19.00;;
75744;SDS011;74462;51.366;-0.222;2024-03-08T01:03:31;32.60;;;21.90;;
75744;SDS011;74462;51.366;-0.222;2024-03-08T01:04:35;34.30;;;20.40;;
75744;SDS011;74462;51.366;-0.222;2024-03-08T01:05:40;35.90;;;22.40;;
75744;SDS011;74462;51.366;-0.222;2024-03-08T01:06:44;34.50;;;22.10;;
75744;SDS011;74462;51.366;-0.222;2024-03-08T01:07:48;34.80;;;20.90;;
75744;SDS011;74462;51.366;-0.222;2024-03-08T01:08:53;33.60;;;22.00;;
75744;SDS011;74462;51.366;-0.222;2024-03-08T01:09:57;33.30;;;20.40;;
75744;SDS011;74462;51.366;-0.222;2024-03-08T01:11:02;35.20;;;19.80;;
75744;SDS011;74462;51.366;-0.222;2024-03-08T01:12:07;34.90;;;23.10;;
75744;SDS011;74462;51.366;-0.222;2024-03-08T01:13:12;34.70;;;22.60;;
75744;SDS011;74462;51.366;-0.222;2024-03-08T01:14:16;32.10;;;19.90;;
75744;SDS011;74462;51.366;-0.222;2024-03-08T01:15:21;33.40;;;22.10;;
75744;SDS011;74462;51.366;-0.222;2024-03-08T01:16:25;28.50;;;18.10;;
75744;SDS011;74462;51.366;-0.222;2024-03-08T01:17:30;32.10;;;20.90;;
75744;SDS011;74462;51.366;-0.222;2024-03-08T01:18:34;35.70;;;22.90;;
75744;SDS011;74462;51.366;-0.222;2024-03-08T01:19:38;32.80;;;21.20;;
75744;SDS011;74462;51.366;-0.222;2024-03-08T01:20:43;33.70;;;22.20;;
75744;SDS011;74462;51.366;-0.222;2024-03-08T01:21:47;31.40;;;20.40;;
75744;SDS011;74462;51.366;-0.222;2024-03-08T01:22:53;33.40;;;20.10;;
75744;SDS011;74462;51.366;-0.222;2024-03-08T01:23:57;32.40;;;20.70;;
75744;SDS011;74462;51.366;-0.222;2024-03-08T01:25:01;34.60;;;23.10;;
75744;SDS011;74462;51.366;-0.222;2024-03-08T01:26:07;34.60;;;18.90;;
75744;SDS011;74462;51.366;-0.222;2024-03-08T01:27:12;39.30;;;24.70;;
75744;SDS011;74462;51.366;-0.222;2024-03-08T01:28:17;34.10;;;22.30;;
75744;SDS011;74462;51.366;-0.222;2024-03-08T01:29:21;32.50;;;18.50;;
75744;SDS011;74462;51.366;-0.222;2024-03-08T01:30:26;33.30;;;25.30;;
75744;SDS011;74462;51.366;-0.222;2024-03-08T01:31:30;33.70;;;22.70;;
75744;SDS011;74462;51.366;-0.222;2024-03-08T01:32:35;35.00;;;22.30;;
75744;SDS011;74462;51.366;-0.222;2024-03-08T01:33:40;35.40;;;21.30;;
75744;SDS011;74462;51.366;-0.222;2024-03-08T01:34:44;30.80;;;20.20;;
75744;SDS011;74462;51.366;-0.222;2024-03-08T01:35:49;37.00;;;23.80;;
75744;SDS011;74462;51.366;-0.222;2024-03-08T01:36:54;34.60;;;21.80;;
75744;SDS011;74462;51.366;-0.222;2024-03-08T01:37:59;32.50;;;21.00;;
75744;SDS011;74462;51.366;-0.222;2024-03-08T01:39:03;34.90;;;18.80;;
75744;SDS011;74462;51.366;-0.222;2024-03-08T01:40:09;31.70;;;19.10;;
75744;SDS011;74462;51.366;-0.222;2024-03-08T01:41:14;33.40;;;22.60;;
75744;SDS011;74462;51.366;-0.222;2024-03-08T01:42:19;33.60;;;20.70;;
75744;SDS011;74462;51.366;-0.222;2024-03-08T01:43:25;34.30;;;19.60;;
75744;SDS011;74462;51.366;-0.222;2024-03-08T01:44:30;34.50;;;19.60;;
75744;SDS011;74462;51.366;-0.222;2024-03-08T01:45:36;31.90;;;23.90;;
75744;SDS011;74462;51.366;-0.222;2024-03-08T01:46:40;35.10;;;21.90;;
75744;SDS011;74462;51.366;-0.222;2024-03-08T01:47:46;36.00;;;24.30;;
75744;SDS011;74462;51.366;-0.222;2024-03-08T01:48:50;34.80;;;23.30;;
75744;SDS011;74462;51.366;-0.222;2024-03-08T01:49:55;34.80;;;22.90;;
75744;SDS011;74462;51.366;-0.222;2024-03-08T01:50:59;34.80;;;19.10;;
75744;SDS011;74462;51.366;-0.222;2024-03-08T01:52:05;33.00;;;19.40;;
75744;SDS011;74462;51.366;-0.222;2024-03-08T01:53:10;35.50;;;20.20;;
75744;SDS011;74462;51.366;-0.222;2024-03-08T01:54:16;34.30;;;20.80;;
75744;SDS011;74462;51.366;-0.222;2024-03-08T01:55:22;33.80;;;19.70;;
75744;SDS011;74462;51.366;-0.222;2024-03-08T01:56:27;36.10;;;21.30;;
75744;SDS011;74462;51.366;-0.222;2024-03-08T01:57:33;30.60;;;18.70;;
75744;SDS011;74462;51.366;-0.222;2024-03-08T01:58:39;33.80;;;20.80;;
75744;SDS011;74462;51.366;-0.222;2024-03-08T01:59:45;30.50;;;19.20;;
75744;SDS011;74462;51.366;-0.222;2024-03-08T02:00:52;32.20;;;19.10;;
75744;SDS011;74462;51.366;-0.222;2024-03-08T02:01:57;32.50;;;18.70;;
75744;SDS011;74462;51.366;-0.222;2024-03-08T02:03:05;35.80;;;23.50;;
75744;SDS011;74462;51.366;-0.222;2024-03-08T02:04:10;34.70;;;19.30;;
75744;SDS011;74462;51.366;-0.222;2024-03-08T02:05:14;38.20;;;23.30;;
75744;SDS011;74462;51.366;-0.222;2024-03-08T02:06:19;32.60;;;20.10;;
75744;SDS011;74462;51.366;-0.222;2024-03-08T02:07:23;30.60;;;19.50;;
75744;SDS011;74462;51.366;-0.222;2024-03-08T02:08:28;34.80;;;20.90;;
75744;SDS011;74462;51.366;-0.222;2024-03-08T02:09:33;34.20;;;20.10;;
75744;SDS011;74462;51.366;-0.222;2024-03-08T02:10:37;32.10;;;21.70;;
75744;SDS011;74462;51.366;-0.222;2024-03-08T02:11:43;35.00;;;24.30;;
75744;SDS011;74462;51.366;-0.222;2024-03-08T02:12:47;31.50;;;18.90;;
75744;SDS011;74462;51.366;-0.222;2024-03-08T02:13:53;35.40;;;22.90;;
75744;SDS011;74462;51.366;-0.222;2024-03-08T02:14:57;35.50;;;22.10;;
75744;SDS011;74462;51.366;-0.222;2024-03-08T02:16:02;33.30;;;18.40;;
75744;SDS011;74462;51.366;-0.222;2024-03-08T02:17:09;33.80;;;20.20;;
75744;SDS011;74462;51.366;-0.222;2024-03-08T02:18:14;33.20;;;22.10;;
75744;SDS011;74462;51.366;-0.222;2024-03-08T02:19:19;36.50;;;22.20;;
75744;SDS011;74462;51.366;-0.222;2024-03-08T02:20:23;29.90;;;18.10;;
75744;SDS011;74462;51.366;-0.222;2024-03-08T02:21:33;31.50;;;19.60;;
75744;SDS011;74462;51.366;-0.222;2024-03-08T02:22:38;35.80;;;21.70;;
75744;SDS011;74462;51.366;-0.222;2024-03-08T02:23:43;31.70;;;19.80;;
75744;SDS011;74462;51.366;-0.222;2024-03-08T02:24:47;30.00;;;19.40;;
75744;SDS011;74462;51.366;-0.222;2024-03-08T02:25:52;33.80;;;24.40;;
75744;SDS011;74462;51.366;-0.222;2024-03-08T02:26:57;34.00;;;19.20;;
75744;SDS011;74462;51.366;-0.222;2024-03-08T02:28:02;38.00;;;23.90;;
75744;SDS011;74462;51.366;-0.222;2024-03-08T02:29:07;33.50;;;22.00;;
75744;SDS011;74462;51.366;-0.222;2024-03-08T02:30:12;33.60;;;21.90;;
75744;SDS011;74462;51.366;-0.222;2024-03-08T02:31:18;35.40;;;19.00;;
75744;SDS011;74462;51.366;-0.222;2024-03-08T02:32:23;30.50;;;19.70;;
75744;SDS011;74462;51.366;-0.222;2024-03-08T02:33:27;31.50;;;19.30;;
75744;SDS011;74462;51.366;-0.222;2024-03-08T02:34:32;30.00;;;18.70;;
75744;SDS011;74462;51.366;-0.222;2024-03-08T02:35:36;35.70;;;23.20;;
75744;SDS011;74462;51.366;-0.222;2024-03-08T02:36:41;36.00;;;22.00;;
75744;SDS011;74462;51.366;-0.222;2024-03-08T02:37:45;33.20;;;19.40;;
75744;SDS011;74462;51.366;-0.222;2024-03-08T02:38:50;32.60;;;20.00;;
75744;SDS011;74462;51.366;-0.222;2024-03-08T02:39:57;28.80;;;18.60;;
75744;SDS011;74462;51.366;-0.222;2024-03-08T02:41:01;30.10;;;17.60;;
75744;SDS011;74462;51.366;-0.222;2024-03-08T02:42:06;30.50;;;20.20;;
75744;SDS011;74462;51.366;-0.222;2024-03-08T02:43:11;29.70;;;18.10;;
75744;SDS011;74462;51.366;-0.222;2024-03-08T02:44:16;31.60;;;19.30;;
75744;SDS011;74462;51.366;-0.222;2024-03-08T02:45:23;33.40;;;20.20;;
75744;SDS011;74462;51.366;-0.222;2024-03-08T02:46:27;30.50;;;19.40;;
75744;SDS011;74462;51.366;-0.222;2024-03-08T02:47:32;29.80;;;18.50;;
75744;SDS011;74462;51.366;-0.222;2024-03-08T02:48:36;29.90;;;18.60;;
75744;SDS011;74462;51.366;-0.222;2024-03-08T02:49:41;34.80;;;21.00;;
75744;SDS011;74462;51.366;-0.222;2024-03-08T02:50:45;28.50;;;19.00;;
75744;SDS011;74462;51.366;-0.222;2024-03-08T02:51:50;31.00;;;21.50;;
75744;SDS011;74462;51.366;-0.222;2024-03-08T02:52:54;35.20;;;20.00;;
75744;SDS011;74462;51.366;-0.222;2024-03-08T02:53:59;31.20;;;18.80;;
75744;SDS011;74462;51.366;-0.222;2024-03-08T02:55:03;32.40;;;17.30;;
75744;SDS011;74462;51.366;-0.222;2024-03-08T02:56:09;30.60;;;20.20;;
75744;SDS011;74462;51.366;-0.222;2024-03-08T02:57:18;30.80;;;20.60;;
75744;SDS011;74462;51.366;-0.222;2024-03-08T02:58:22;30.20;;;17.70;;
75744;SDS011;74462;51.366;-0.222;2024-03-08T02:59:26;34.60;;;19.40;;
75744;SDS011;74462;51.366;-0.222;2024-03-08T03:00:31;28.30;;;17.60;;
75744;SDS011;74462;51.366;-0.222;2024-03-08T03:01:35;33.20;;;21.00;;
75744;SDS011;74462;51.366;-0.222;2024-03-08T03:02:40;30.40;;;20.30;;
75744;SDS011;74462;51.366;-0.222;2024-03-08T03:03:45;28.10;;;18.20;;
75744;SDS011;74462;51.366;-0.222;2024-03-08T03:04:49;31.10;;;20.40;;
75744;SDS011;74462;51.366;-0.222;2024-03-08T03:05:54;29.40;;;17.20;;
75744;SDS011;74462;51.366;-0.222;2024-03-08T03:06:58;29.30;;;19.10;;
75744;SDS011;74462;51.366;-0.222;2024-03-08T03:08:03;30.90;;;18.90;;
75744;SDS011;74462;51.366;-0.222;2024-03-08T03:09:10;32.90;;;21.00;;
75744;SDS011;74462;51.366;-0.222;2024-03-08T03:10:18;28.70;;;19.70;;
75744;SDS011;74462;51.366;-0.222;2024-03-08T03:11:23;33.70;;;18.30;;
75744;SDS011;74462;51.366;-0.222;2024-03-08T03:12:28;28.70;;;18.10;;
75744;SDS011;74462;51.366;-0.222;2024-03-08T03:13:35;28.90;;;17.60;;
75744;SDS011;74462;51.366;-0.222;2024-03-08T03:14:39;33.90;;;21.40;;
75744;SDS011;74462;51.366;-0.222;2024-03-08T03:15:44;29.00;;;16.10;;
75744;SDS011;74462;51.366;-0.222;2024-03-08T03:16:50;30.80;;;17.70;;
75744;SDS011;74462;51.366;-0.222;2024-03-08T03:17:54;29.60;;;18.30;;
75744;SDS011;74462;51.366;-0.222;2024-03-08T03:18:59;26.20;;;17.90;;
75744;SDS011;74462;51.366;-0.222;2024-03-08T03:20:07;26.40;;;16.30;;
75744;SDS011;74462;51.366;-0.222;2024-03-08T03:21:15;28.10;;;17.30;;
75744;SDS011;74462;51.366;-0.222;2024-03-08T03:22:19;28.40;;;19.70;;
75744;SDS011;74462;51.366;-0.222;2024-03-08T03:23:24;29.00;;;20.10;;
75744;SDS011;74462;51.366;-0.222;2024-03-08T03:24:29;27.70;;;17.50;;
75744;SDS011;74462;51.366;-0.222;2024-03-08T03:25:35;26.90;;;16.90;;
75744;SDS011;74462;51.366;-0.222;2024-03-08T03:26:42;28.20;;;17.60;;
75744;SDS011;74462;51.366;-0.222;2024-03-08T03:27:47;37.30;;;21.40;;
75744;SDS011;74462;51.366;-0.222;2024-03-08T03:28:52;29.20;;;19.50;;
75744;SDS011;74462;51.366;-0.222;2024-03-08T03:29:56;25.90;;;18.20;;
75744;SDS011;74462;51.366;-0.222;2024-03-08T03:31:21;26.40;;;17.00;;
75744;SDS011;74462;51.366;-0.222;2024-03-08T03:32:27;27.30;;;16.70;;
75744;SDS011;74462;51.366;-0.222;2024-03-08T03:33:31;27.20;;;16.70;;
75744;SDS011;74462;51.366;-0.222;2024-03-08T03:34:37;32.90;;;20.70;;
75744;SDS011;74462;51.366;-0.222;2024-03-08T03:35:42;31.60;;;19.30;;
75744;SDS011;74462;51.366;-0.222;2024-03-08T03:36:47;29.40;;;17.20;;
75744;SDS011;74462;51.366;-0.222;2024-03-08T03:37:51;28.10;;;19.10;;
75744;SDS011;74462;51.366;-0.222;2024-03-08T03:39:07;25.80;;;15.60;;
75744;SDS011;74462;51.366;-0.222;2024-03-08T03:40:15;31.00;;;18.40;;
75744;SDS011;74462;51.366;-0.222;2024-03-08T03:41:20;30.70;;;20.00;;
75744;SDS011;74462;51.366;-0.222;2024-03-08T03:42:25;27.10;;;17.40;;
75744;SDS011;74462;51.366;-0.222;2024-03-08T03:43:29;31.00;;;20.80;;
75744;SDS011;74462;51.366;-0.222;2024-03-08T03:44:34;25.50;;;16.40;;
75744;SDS011;74462;51.366;-0.222;2024-03-08T03:45:38;25.90;;;16.80;;
75744;SDS011;74462;51.366;-0.222;2024-03-08T03:46:43;29.10;;;17.20;;
75744;SDS011;74462;51.366;-0.222;2024-03-08T03:47:48;27.90;;;17.80;;
75744;SDS011;74462;51.366;-0.222;2024-03-08T03:48:53;29.60;;;17.30;;
75744;SDS011;74462;51.366;-0.222;2024-03-08T03:49:57;29.30;;;18.90;;
75744;SDS011;74462;51.366;-0.222;2024-03-08T03:51:04;29.30;;;20.00;;
75744;SDS011;74462;51.366;-0.222;2024-03-08T03:52:09;24.70;;;15.40;;
75744;SDS011;74462;51.366;-0.222;2024-03-08T03:53:13;26.70;;;16.70;;
75744;SDS011;74462;51.366;-0.222;2024-03-08T03:54:18;27.60;;;16.10;;
75744;SDS011;74462;51.366;-0.222;2024-03-08T03:55:23;27.20;;;16.70;;
75744;SDS011;74462;51.366;-0.222;2024-03-08T03:56:28;27.20;;;18.70;;
75744;SDS011;74462;51.366;-0.222;2024-03-08T03:57:33;29.30;;;16.90;;
75744;SDS011;74462;51.366;-0.222;2024-03-08T03:58:37;26.40;;;18.60;;
75744;SDS011;74462;51.366;-0.222;2024-03-08T03:59:42;30.20;;;19.60;;
75744;SDS011;74462;51.366;-0.222;2024-03-08T04:00:46;30.60;;;20.60;;
75744;SDS011;74462;51.366;-0.222;2024-03-08T04:01:51;31.60;;;19.00;;
75744;SDS011;74462;51.366;-0.222;2024-03-08T04:02:55;25.90;;;17.80;;
75744;SDS011;74462;51.366;-0.222;2024-03-08T04:04:02;25.80;;;15.80;;
75744;SDS011;74462;51.366;-0.222;2024-03-08T04:05:07;25.00;;;16.80;;
75744;SDS011;74462;51.366;-0.222;2024-03-08T04:06:12;32.00;;;18.90;;
75744;SDS011;74462;51.366;-0.222;2024-03-08T04:07:16;24.80;;;14.90;;
75744;SDS011;74462;51.366;-0.222;2024-03-08T04:08:21;24.20;;;15.70;;
75744;SDS011;74462;51.366;-0.222;2024-03-08T04:09:26;25.50;;;15.20;;
75744;SDS011;74462;51.366;-0.222;2024-03-08T04:10:30;27.10;;;15.20;;
75744;SDS011;74462;51.366;-0.222;2024-03-08T04:11:35;26.90;;;18.20;;
75744;SDS011;74462;51.366;-0.222;2024-03-08T04:12:39;28.80;;;18.70;;
75744;SDS011;74462;51.366;-0.222;2024-03-08T04:13:43;26.50;;;17.10;;
75744;SDS011;74462;51.366;-0.222;2024-03-08T04:14:48;28.60;;;19.00;;
75744;SDS011;74462;51.366;-0.222;2024-03-08T04:15:52;26.80;;;15.80;;
75744;SDS011;74462;51.366;-0.222;2024-03-08T04:16:57;30.70;;;18.00;;
75744;SDS011;74462;51.366;-0.222;2024-03-08T04:18:01;29.40;;;19.20;;
75744;SDS011;74462;51.366;-0.222;2024-03-08T04:19:06;27.30;;;17.00;;
75744;SDS011;74462;51.366;-0.222;2024-03-08T04:20:11;29.50;;;17.90;;
75744;SDS011;74462;51.366;-0.222;2024-03-08T04:21:16;27.50;;;16.80;;
75744;SDS011;74462;51.366;-0.222;2024-03-08T04:22:21;28.50;;;19.00;;
75744;SDS011;74462;51.366;-0.222;2024-03-08T04:23:25;27.60;;;16.70;;
75744;SDS011;74462;51.366;-0.222;2024-03-08T04:24:30;30.20;;;17.20;;
75744;SDS011;74462;51.366;-0.222;2024-03-08T04:25:34;28.60;;;18.50;;
75744;SDS011;74462;51.366;-0.222;2024-03-08T04:26:39;28.80;;;17.20;;
75744;SDS011;74462;51.366;-0.222;2024-03-08T04:27:43;26.20;;;17.00;;
75744;SDS011;74462;51.366;-0.222;2024-03-08T04:28:48;29.20;;;20.90;;
75744;SDS011;74462;51.366;-0.222;2024-03-08T04:29:53;26.70;;;16.10;;
75744;SDS011;74462;51.366;-0.222;2024-03-08T04:30:58;29.20;;;19.80;;
75744;SDS011;74462;51.366;-0.222;2024-03-08T04:32:03;26.20;;;16.30;;
75744;SDS011;74462;51.366;-0.222;2024-03-08T04:33:10;32.60;;;22.50;;
75744;SDS011;74462;51.366;-0.222;2024-03-08T04:34:16;27.20;;;17.60;;
75744;SDS011;74462;51.366;-0.222;2024-03-08T04:35:21;32.70;;;20.40;;
75744;SDS011;74462;51.366;-0.222;2024-03-08T04:36:25;31.40;;;18.60;;
75744;SDS011;74462;51.366;-0.222;2024-03-08T04:37:30;27.50;;;17.20;;
75744;SDS011;74462;51.366;-0.222;2024-03-08T04:38:34;24.80;;;14.20;;
75744;SDS011;74462;51.366;-0.222;2024-03-08T04:39:42;27.30;;;15.00;;
75744;SDS011;74462;51.366;-0.222;2024-03-08T04:40:46;24.90;;;16.80;;
75744;SDS011;74462;51.366;-0.222;2024-03-08T04:41:51;26.90;;;16.90;;
75744;SDS011;74462;51.366;-0.222;2024-03-08T04:42:56;28.40;;;20.40;;
75744;SDS011;74462;51.366;-0.222;2024-03-08T04:44:01;26.20;;;16.20;;
75744;SDS011;74462;51.366;-0.222;2024-03-08T04:45:06;27.90;;;16.20;;
75744;SDS011;74462;51.366;-0.222;2024-03-08T04:46:12;26.70;;;17.60;;
75744;SDS011;74462;51.366;-0.222;2024-03-08T04:47:17;30.00;;;20.30;;
75744;SDS011;74462;51.366;-0.222;2024-03-08T04:48:21;24.60;;;16.10;;
75744;SDS011;74462;51.366;-0.222;2024-03-08T04:49:28;28.20;;;15.80;;
75744;SDS011;74462;51.366;-0.222;2024-03-08T04:50:32;28.50;;;17.50;;
75744;SDS011;74462;51.366;-0.222;2024-03-08T04:51:37;27.70;;;16.80;;
75744;SDS011;74462;51.366;-0.222;2024-03-08T04:52:41;26.90;;;15.10;;
75744;SDS011;74462;51.366;-0.222;2024-03-08T04:53:46;27.40;;;17.60;;
75744;SDS011;74462;51.366;-0.222;2024-03-08T04:54:51;28.10;;;18.00;;
75744;SDS011;74462;51.366;-0.222;2024-03-08T04:55:55;28.80;;;20.00;;
75744;SDS011;74462;51.366;-0.222;2024-03-08T04:57:00;28.80;;;17.00;;
75744;SDS011;74462;51.366;-0.222;2024-03-08T04:58:06;26.90;;;16.40;;
75744;SDS011;74462;51.366;-0.222;2024-03-08T04:59:10;28.50;;;16.90;;
75744;SDS011;74462;51.366;-0.222;2024-03-08T05:00:16;27.90;;;17.50;;
75744;SDS011;74462;51.366;-0.222;2024-03-08T05:01:20;26.90;;;17.40;;
75744;SDS011;74462;51.366;-0.222;2024-03-08T05:02:25;27.40;;;19.10;;
75744;SDS011;74462;51.366;-0.222;2024-03-08T05:03:29;28.70;;;17.30;;
75744;SDS011;74462;51.366;-0.222;2024-03-08T05:04:34;28.30;;;15.80;;
75744;SDS011;74462;51.366;-0.222;2024-03-08T05:05:38;30.80;;;17.30;;
75744;SDS011;74462;51.366;-0.222;2024-03-08T05:06:44;24.40;;;15.30;;
75744;SDS011;74462;51.366;-0.222;2024-03-08T05:07:48;27.90;;;16.50;;
75744;SDS011;74462;51.366;-0.222;2024-03-08T05:08:53;25.00;;;16.30;;
75744;SDS011;74462;51.366;-0.222;2024-03-08T05:09:57;25.80;;;16.50;;
75744;SDS011;74462;51.366;-0.222;2024-03-08T05:11:01;24.90;;;16.50;;
75744;SDS011;74462;51.366;-0.222;2024-03-08T05:12:08;30.50;;;19.80;;
75744;SDS011;74462;51.366;-0.222;2024-03-08T05:13:12;25.00;;;15.60;;
75744;SDS011;74462;51.366;-0.222;2024-03-08T05:14:17;27.20;;;15.00;;
75744;SDS011;74462;51.366;-0.222;2024-03-08T05:15:22;27.70;;;16.20;;
75744;SDS011;74462;51.366;-0.222;2024-03-08T05:16:26;27.80;;;19.50;;
75744;SDS011;74462;51.366;-0.222;2024-03-08T05:17:31;23.80;;;15.50;;
75744;SDS011;74462;51.366;-0.222;2024-03-08T05:18:35;27.70;;;16.80;;
75744;SDS011;74462;51.366;-0.222;2024-03-08T05:19:40;26.90;;;16.30;;
75744;SDS011;74462;51.366;-0.222;2024-03-08T05:20:44;27.30;;;16.60;;
75744;SDS011;74462;51.366;-0.222;2024-03-08T05:21:49;25.70;;;17.60;;
75744;SDS011;74462;51.366;-0.222;2024-03-08T05:22:54;25.90;;;18.40;;
75744;SDS011;74462;51.366;-0.222;2024-03-08T05:24:00;26.00;;;16.00;;
75744;SDS011;74462;51.366;-0.222;2024-03-08T05:25:05;26.60;;;15.40;;
75744;SDS011;74462;51.366;-0.222;2024-03-08T05:26:11;28.10;;;15.50;;
75744;SDS011;74462;51.366;-0.222;2024-03-08T05:27:16;24.10;;;13.90;;
75744;SDS011;74462;51.366;-0.222;2024-03-08T05:28:20;24.80;;;14.70;;
75744;SDS011;74462;51.366;-0.222;2024-03-08T05:29:25;26.30;;;16.50;;
75744;SDS011;74462;51.366;-0.222;2024-03-08T05:30:30;25.60;;;19.70;;
75744;SDS011;74462;51.366;-0.222;2024-03-08T05:31:36;27.00;;;19.30;;
75744;SDS011;74462;51.366;-0.222;2024-03-08T05:32:48;28.10;;;16.00;;
75744;SDS011;74462;51.366;-0.222;2024-03-08T05:33:52;27.00;;;16.30;;
75744;SDS011;74462;51.366;-0.222;2024-03-08T05:34:57;23.50;;;16.20;;
75744;SDS011;74462;51.366;-0.222;2024-03-08T05:36:02;26.80;;;17.90;;
75744;SDS011;74462;51.366;-0.222;2024-03-08T05:37:07;27.50;;;15.80;;
75744;SDS011;74462;51.366;-0.222;2024-03-08T05:38:12;26.30;;;15.20;;
75744;SDS011;74462;51.366;-0.222;2024-03-08T05:39:17;24.20;;;15.20;;
75744;SDS011;74462;51.366;-0.222;2024-03-08T05:40:22;23.80;;;16.30;;
75744;SDS011;74462;51.366;-0.222;2024-03-08T05:41:26;22.00;;;14.20;;
75744;SDS011;74462;51.366;-0.222;2024-03-08T05:42:31;23.50;;;15.70;;
75744;SDS011;74462;51.366;-0.222;2024-03-08T05:43:35;26.80;;;17.90;;
75744;SDS011;74462;51.366;-0.222;2024-03-08T05:44:39;23.90;;;17.10;;
75744;SDS011;74462;51.366;-0.222;2024-03-08T05:45:45;28.60;;;18.80;;
75744;SDS011;74462;51.366;-0.222;2024-03-08T05:46:49;27.00;;;16.10;;
75744;SDS011;74462;51.366;-0.222;2024-03-08T05:47:53;30.30;;;20.50;;
75744;SDS011;74462;51.366;-0.222;2024-03-08T05:48:58;26.90;;;19.20;;
75744;SDS011;74462;51.366;-0.222;2024-03-08T05:50:07;26.30;;;15.70;;
75744;SDS011;74462;51.366;-0.222;2024-03-08T05:51:12;29.30;;;17.10;;
75744;SDS011;74462;51.366;-0.222;2024-03-08T05:52:17;26.60;;;16.40;;
75744;SDS011;74462;51.366;-0.222;2024-03-08T05:53:21;27.60;;;17.80;;
75744;SDS011;74462;51.366;-0.222;2024-03-08T05:54:26;27.20;;;20.00;;
75744;SDS011;74462;51.366;-0.222;2024-03-08T05:55:30;27.20;;;17.30;;
75744;SDS011;74462;51.366;-0.222;2024-03-08T05:56:36;25.70;;;19.50;;
75744;SDS011;74462;51.366;-0.222;2024-03-08T05:57:42;23.50;;;16.10;;
75744;SDS011;74462;51.366;-0.222;2024-03-08T05:58:46;25.60;;;17.10;;
75744;SDS011;74462;51.366;-0.222;2024-03-08T05:59:51;26.80;;;15.80;;
75744;SDS011;74462;51.366;-0.222;2024-03-08T06:00:56;24.10;;;19.60;;
75744;SDS011;74462;51.366;-0.222;2024-03-08T06:02:00;27.50;;;15.70;;
75744;SDS011;74462;51.366;-0.222;2024-03-08T06:03:06;25.80;;;19.90;;
75744;SDS011;74462;51.366;-0.222;2024-03-08T06:04:10;28.30;;;16.00;;
75744;SDS011;74462;51.366;-0.222;2024-03-08T06:05:15;26.00;;;16.70;;
75744;SDS011;74462;51.366;-0.222;2024-03-08T06:06:20;25.20;;;15.50;;
75744;SDS011;74462;51.366;-0.222;2024-03-08T06:07:25;29.30;;;17.70;;
75744;SDS011;74462;51.366;-0.222;2024-03-08T06:08:29;31.70;;;17.10;;
75744;SDS011;74462;51.366;-0.222;2024-03-08T06:09:34;24.10;;;15.50;;
75744;SDS011;74462;51.366;-0.222;2024-03-08T06:10:38;23.20;;;15.60;;
75744;SDS011;74462;51.366;-0.222;2024-03-08T06:11:43;29.90;;;17.70;;
75744;SDS011;74462;51.366;-0.222;2024-03-08T06:12:47;25.60;;;15.60;;
75744;SDS011;74462;51.366;-0.222;2024-03-08T06:13:53;26.10;;;20.00;;
75744;SDS011;74462;51.366;-0.222;2024-03-08T06:15:01;27.10;;;19.00;;